createdAt,value
2023-02-07T00:00:57.472Z,61.99
2023-02-07T00:01:57.500Z,63.91
2023-02-07T00:02:57.503Z,62.50
2023-02-07T00:03:57.495Z,60.52
2023-02-07T00:04:57.455Z,62.26
2023-02-07T00:05:57.452Z,62.51
2023-02-07T00:06:57.436Z,60.65
2023-02-07T00:07:57.451Z,62.41
2023-02-07T00:08:57.424Z,61.31
2023-02-07T00:09:57.449Z,62.87
2023-02-07T00:10:57.417Z,57.54
2023-02-07T00:11:57.413Z,59.70
2023-02-07T00:12:57.403Z,63.58
2023-02-07T00:13:57.400Z,59.03
2023-02-07T00:14:57.389Z,61.44
2023-02-07T00:15:57.397Z,62.55
2023-02-07T00:16:57.393Z,60.46
2023-02-07T00:17:57.371Z,62.45
2023-02-07T00:19:00.037Z,60.21
2023-02-07T00:19:57.360Z,61.67
2023-02-07T00:20:57.377Z,61.86
2023-02-07T00:21:57.360Z,63.41
2023-02-07T00:22:57.335Z,61.27
2023-02-07T00:23:57.336Z,60.48
2023-02-07T00:24:57.325Z,61.14
2023-02-07T00:25:57.344Z,61.26
2023-02-07T00:26:57.313Z,61.91
2023-02-07T00:27:57.416Z,61.38
2023-02-07T00:28:57.297Z,62.12
2023-02-07T00:29:57.302Z,60.72
2023-02-07T00:30:57.345Z,62.37
2023-02-07T00:31:57.308Z,61.95
2023-02-07T00:32:57.288Z,61.54
2023-02-07T00:33:57.279Z,62.04
2023-02-07T00:34:57.290Z,59.07
2023-02-07T00:35:57.273Z,63.21
2023-02-07T00:36:57.293Z,64.21
2023-02-07T00:37:57.274Z,62.39
2023-02-07T00:38:57.301Z,61.37
2023-02-07T00:39:57.246Z,61.40
2023-02-07T00:40:57.239Z,62.16
2023-02-07T00:41:57.229Z,60.42
2023-02-07T00:42:57.231Z,64.17
2023-02-07T00:43:57.227Z,64.13
2023-02-07T00:44:57.230Z,65.70
2023-02-07T00:45:57.268Z,62.38
2023-02-07T00:46:57.208Z,65.33
2023-02-07T00:47:57.215Z,63.85
2023-02-07T00:48:57.207Z,62.01
2023-02-07T00:49:57.202Z,66.52
2023-02-07T00:50:57.187Z,59.89
2023-02-07T00:51:57.203Z,62.71
2023-02-07T00:52:57.172Z,63.96
2023-02-07T00:53:57.158Z,65.47
2023-02-07T00:54:57.163Z,63.29
2023-02-07T00:55:57.145Z,61.70
2023-02-07T00:56:57.145Z,58.69
2023-02-07T00:57:57.185Z,59.63
2023-02-07T00:58:57.123Z,62.65
2023-02-07T00:59:57.121Z,60.09
2023-02-07T01:00:57.172Z,63.94
2023-02-07T01:01:57.121Z,62.14
2023-02-07T01:02:57.115Z,61.43
2023-02-07T01:03:57.119Z,63.47
2023-02-07T01:04:57.109Z,63.14
2023-02-07T01:05:57.104Z,62.99
2023-02-07T01:06:57.082Z,59.66
2023-02-07T01:07:57.083Z,62.27
2023-02-07T01:08:57.073Z,63.23
2023-02-07T01:09:57.091Z,62.44
2023-02-07T01:10:57.053Z,59.91
2023-02-07T01:11:57.057Z,63.65
2023-02-07T01:12:57.048Z,61.14
2023-02-07T01:13:57.057Z,61.26
2023-02-07T01:14:57.031Z,59.31
2023-02-07T01:15:57.112Z,62.55
2023-02-07T01:16:57.034Z,63.39
2023-02-07T01:17:57.016Z,63.31
2023-02-07T01:18:57.037Z,61.84
2023-02-07T01:19:57.025Z,62.86
2023-02-07T01:20:56.996Z,61.78
2023-02-07T01:21:56.996Z,61.63
2023-02-07T01:22:57.006Z,62.56
2023-02-07T01:23:56.991Z,61.92
2023-02-07T01:24:56.974Z,63.43
2023-02-07T01:25:56.971Z,60.61
2023-02-07T01:26:56.961Z,64.79
2023-02-07T01:27:56.984Z,62.85
2023-02-07T01:28:57.015Z,62.03
2023-02-07T01:29:56.964Z,63.42
2023-02-07T01:30:57.038Z,62.81
2023-02-07T01:31:56.989Z,63.42
2023-02-07T01:32:56.922Z,63.93
2023-02-07T01:33:56.942Z,63.08
2023-02-07T01:34:56.911Z,61.11
2023-02-07T01:35:56.911Z,57.59
2023-02-07T01:36:56.898Z,61.98
2023-02-07T01:37:56.945Z,59.43
2023-02-07T01:38:56.897Z,60.34
2023-02-07T01:39:56.886Z,61.74
2023-02-07T01:40:56.884Z,63.21
2023-02-07T01:41:56.869Z,64.19
2023-02-07T01:42:56.861Z,62.26
2023-02-07T01:43:56.880Z,60.87
2023-02-07T01:44:56.898Z,62.87
2023-02-07T01:45:56.878Z,58.32
2023-02-07T01:46:56.836Z,61.60
2023-02-07T01:47:56.856Z,63.13
2023-02-07T01:48:56.831Z,62.10
2023-02-07T01:49:56.847Z,61.36
2023-02-07T01:50:56.833Z,60.29
2023-02-07T01:51:56.830Z,62.56
2023-02-07T01:52:56.800Z,63.42
2023-02-07T01:53:56.798Z,58.78
2023-02-07T01:54:56.814Z,60.01
2023-02-07T01:55:56.773Z,58.26
2023-02-07T01:56:56.766Z,62.10
2023-02-07T01:57:56.757Z,56.81
2023-02-07T01:58:56.751Z,61.13
2023-02-07T01:59:56.748Z,59.97
2023-02-07T02:00:56.754Z,62.28
2023-02-07T02:01:56.737Z,62.59
2023-02-07T02:02:56.755Z,62.53
2023-02-07T02:03:56.720Z,63.75
2023-02-07T02:04:56.718Z,61.31
2023-02-07T02:05:56.727Z,62.03
2023-02-07T02:06:56.715Z,59.34
2023-02-07T02:07:56.698Z,60.37
2023-02-07T02:08:56.690Z,67.20
2023-02-07T02:09:56.711Z,61.11
2023-02-07T02:10:56.671Z,60.10
2023-02-07T02:11:56.679Z,60.08
2023-02-07T02:12:56.665Z,63.75
2023-02-07T02:13:56.663Z,63.70
2023-02-07T02:14:56.652Z,58.06
2023-02-07T02:15:56.686Z,61.70
2023-02-07T02:16:56.641Z,61.27
2023-02-07T02:17:56.639Z,63.21
2023-02-07T02:18:56.633Z,63.69
2023-02-07T02:19:56.623Z,61.75
2023-02-07T02:20:56.616Z,61.74
2023-02-07T02:21:56.634Z,62.29
2023-02-07T02:22:56.611Z,61.24
2023-02-07T02:23:56.606Z,60.89
2023-02-07T02:24:56.592Z,57.86
2023-02-07T02:25:56.590Z,63.06
2023-02-07T02:26:56.585Z,61.52
2023-02-07T02:27:56.632Z,62.35
2023-02-07T02:28:56.609Z,61.57
2023-02-07T02:29:56.582Z,61.81
2023-02-07T02:30:56.677Z,62.56
2023-02-07T02:31:56.583Z,62.56
2023-02-07T02:32:56.583Z,59.91
2023-02-07T02:33:56.550Z,58.75
2023-02-07T02:34:56.542Z,63.00
2023-02-07T02:35:56.535Z,64.80
2023-02-07T02:36:56.532Z,63.00
2023-02-07T02:37:56.552Z,61.80
2023-02-07T02:38:56.537Z,65.78
2023-02-07T02:39:56.507Z,61.80
2023-02-07T02:40:56.510Z,62.77
2023-02-07T02:41:56.505Z,62.18
2023-02-07T02:42:56.507Z,64.30
2023-02-07T02:43:56.499Z,62.92
2023-02-07T02:44:56.484Z,59.89
2023-02-07T02:45:56.506Z,64.39
2023-02-07T02:46:56.479Z,63.22
2023-02-07T02:47:56.470Z,62.78
2023-02-07T02:48:56.460Z,60.16
2023-02-07T02:49:56.463Z,64.82
2023-02-07T02:50:56.482Z,60.70
2023-02-07T02:51:56.446Z,62.40
2023-02-07T02:52:56.445Z,63.55
2023-02-07T02:53:56.448Z,62.24
2023-02-07T02:54:56.439Z,63.81
2023-02-07T02:55:56.452Z,60.74
2023-02-07T02:56:56.419Z,62.80
2023-02-07T02:57:56.439Z,60.77
2023-02-07T02:58:56.406Z,63.86
2023-02-07T02:59:56.401Z,60.36
2023-02-07T03:00:56.417Z,62.19
2023-02-07T03:01:56.476Z,63.59
2023-02-07T03:02:56.405Z,62.97
2023-02-07T03:03:56.396Z,61.85
2023-02-07T03:04:56.407Z,59.63
2023-02-07T03:05:56.385Z,58.40
2023-02-07T03:06:56.357Z,61.75
2023-02-07T03:07:56.378Z,62.11
2023-02-07T03:08:56.348Z,63.86
2023-02-07T03:09:56.351Z,58.78
2023-02-07T03:10:56.360Z,59.88
2023-02-07T03:11:56.338Z,59.40
2023-02-07T03:12:56.329Z,60.05
2023-02-07T03:13:56.337Z,61.40
2023-02-07T03:14:56.317Z,60.39
2023-02-07T03:15:56.342Z,62.42
2023-02-07T03:16:56.324Z,59.84
2023-02-07T03:17:56.333Z,61.38
2023-02-07T03:18:56.293Z,64.88
2023-02-07T03:19:56.296Z,64.00
2023-02-07T03:20:56.301Z,64.09
2023-02-07T03:21:56.274Z,61.74
2023-02-07T03:22:56.290Z,61.36
2023-02-07T03:23:56.266Z,61.31
2023-02-07T03:24:56.261Z,65.78
2023-02-07T03:25:56.273Z,65.34
2023-02-07T03:26:56.242Z,64.54
2023-02-07T03:27:56.307Z,65.73
2023-02-07T03:28:56.237Z,63.75
2023-02-07T03:29:56.238Z,62.01
2023-02-07T03:30:56.261Z,63.07
2023-02-07T03:31:56.243Z,63.18
2023-02-07T03:32:56.211Z,62.92
2023-02-07T03:33:56.200Z,63.79
2023-02-07T03:34:56.217Z,66.10
2023-02-07T03:35:56.191Z,65.74
2023-02-07T03:36:56.187Z,63.95
2023-02-07T03:37:56.202Z,66.90
2023-02-07T03:38:56.180Z,65.81
2023-02-07T03:39:56.174Z,64.19
2023-02-07T03:40:56.162Z,66.28
2023-02-07T03:41:56.156Z,65.15
2023-02-07T03:42:56.148Z,63.12
2023-02-07T03:43:56.166Z,64.86
2023-02-07T03:44:56.141Z,64.18
2023-02-07T03:45:56.162Z,63.75
2023-02-07T03:46:56.130Z,61.62
2023-02-07T03:47:56.121Z,63.04
2023-02-07T03:48:56.123Z,66.37
2023-02-07T03:49:56.115Z,64.54
2023-02-07T03:50:56.104Z,64.41
2023-02-07T03:51:56.149Z,64.26
2023-02-07T03:52:56.100Z,64.09
2023-02-07T03:53:56.093Z,62.05
2023-02-07T03:54:56.086Z,63.58
2023-02-07T03:55:56.086Z,64.77
2023-02-07T03:56:56.074Z,65.50
2023-02-07T03:57:56.090Z,63.69
2023-02-07T03:58:56.062Z,65.10
2023-02-07T03:59:56.056Z,64.64
2023-02-07T04:00:56.053Z,64.96
2023-02-07T04:01:56.062Z,60.25
2023-02-07T04:02:56.033Z,66.60
2023-02-07T04:03:56.054Z,65.76
2023-02-07T04:04:56.027Z,65.51
2023-02-07T04:05:56.043Z,65.55
2023-02-07T04:06:56.008Z,64.21
2023-02-07T04:07:56.008Z,62.65
2023-02-07T04:08:56.018Z,63.39
2023-02-07T04:09:55.993Z,68.12
2023-02-07T04:10:55.985Z,64.49
2023-02-07T04:11:55.986Z,66.91
2023-02-07T04:12:55.981Z,62.55
2023-02-07T04:13:55.978Z,63.00
2023-02-07T04:14:56.016Z,65.23
2023-02-07T04:15:55.958Z,65.12
2023-02-07T04:16:55.969Z,68.12
2023-02-07T04:17:55.945Z,64.85
2023-02-07T04:18:55.964Z,64.84
2023-02-07T04:19:55.932Z,66.65
2023-02-07T04:20:55.926Z,65.40
2023-02-07T04:21:55.914Z,65.54
2023-02-07T04:22:55.916Z,63.37
2023-02-07T04:23:55.924Z,66.67
2023-02-07T04:24:55.901Z,65.74
2023-02-07T04:25:55.902Z,64.96
2023-02-07T04:26:55.888Z,66.06
2023-02-07T04:27:55.923Z,66.19
2023-02-07T04:28:55.890Z,67.56
2023-02-07T04:29:55.869Z,65.07
2023-02-07T04:30:55.873Z,64.57
2023-02-07T04:31:58.551Z,65.10
2023-02-07T04:32:55.856Z,67.35
2023-02-07T04:33:55.840Z,67.33
2023-02-07T04:34:55.831Z,65.03
2023-02-07T04:35:55.820Z,65.84
2023-02-07T04:36:55.813Z,64.83
2023-02-07T04:37:55.807Z,65.03
2023-02-07T04:38:55.817Z,65.44
2023-02-07T04:39:55.804Z,67.69
2023-02-07T04:40:55.787Z,67.56
2023-02-07T04:41:55.805Z,66.04
2023-02-07T04:42:55.778Z,66.32
2023-02-07T04:43:55.774Z,65.78
2023-02-07T04:44:55.790Z,66.82
2023-02-07T04:45:55.781Z,66.49
2023-02-07T04:46:55.758Z,68.47
2023-02-07T04:47:55.769Z,68.32
2023-02-07T04:48:55.763Z,66.73
2023-02-07T04:49:55.738Z,67.63
2023-02-07T04:50:55.729Z,67.17
2023-02-07T04:51:55.746Z,66.43
2023-02-07T04:52:55.712Z,67.71
2023-02-07T04:53:55.701Z,67.61
2023-02-07T04:54:55.720Z,66.61
2023-02-07T04:55:55.709Z,66.48
2023-02-07T04:56:55.703Z,64.14
2023-02-07T04:57:55.687Z,64.87
2023-02-07T04:58:55.675Z,67.19
2023-02-07T04:59:55.696Z,66.91
2023-02-07T05:00:55.681Z,67.60
2023-02-07T05:01:55.673Z,67.16
2023-02-07T05:02:55.656Z,65.12
2023-02-07T05:03:55.644Z,68.61
2023-02-07T05:04:55.641Z,65.60
2023-02-07T05:05:55.640Z,64.76
2023-02-07T05:06:55.641Z,66.38
2023-02-07T05:07:55.631Z,67.99
2023-02-07T05:08:55.614Z,67.74
2023-02-07T05:09:55.631Z,65.77
2023-02-07T05:10:55.601Z,65.87
2023-02-07T05:11:55.597Z,66.87
2023-02-07T05:12:55.591Z,66.11
2023-02-07T05:13:55.587Z,67.37
2023-02-07T05:14:55.736Z,66.44
2023-02-07T05:15:55.594Z,66.64
2023-02-07T05:16:55.593Z,66.99
2023-02-07T05:17:55.567Z,67.77
2023-02-07T05:18:55.575Z,68.52
2023-02-07T05:19:55.552Z,65.59
2023-02-07T05:20:55.574Z,68.58
2023-02-07T05:21:55.537Z,68.70
2023-02-07T05:22:55.536Z,67.33
2023-02-07T05:23:55.556Z,66.54
2023-02-07T05:24:55.521Z,64.75
2023-02-07T05:25:55.520Z,68.04
2023-02-07T05:26:55.503Z,67.44
2023-02-07T05:27:55.530Z,67.26
2023-02-07T05:28:55.498Z,66.98
2023-02-07T05:29:55.488Z,66.43
2023-02-07T05:30:55.536Z,67.06
2023-02-07T05:31:55.483Z,65.93
2023-02-07T05:32:55.478Z,68.70
2023-02-07T05:33:55.488Z,68.68
2023-02-07T05:34:55.454Z,67.99
2023-02-07T05:35:55.458Z,67.42
2023-02-07T05:36:55.445Z,65.97
2023-02-07T05:37:55.453Z,68.45
2023-02-07T05:38:55.446Z,67.72
2023-02-07T05:39:55.437Z,68.10
2023-02-07T05:40:55.424Z,69.36
2023-02-07T05:41:55.437Z,68.58
2023-02-07T05:42:55.415Z,66.56
2023-02-07T05:43:55.408Z,68.64
2023-02-07T05:44:55.399Z,70.00
2023-02-07T05:45:55.419Z,68.01
2023-02-07T05:46:55.413Z,67.85
2023-02-07T05:47:55.378Z,67.26
2023-02-07T05:48:55.370Z,66.42
2023-02-07T05:49:55.368Z,68.60
2023-02-07T05:50:55.369Z,69.11
2023-02-07T05:51:55.373Z,68.11
2023-02-07T05:52:55.352Z,69.63
2023-02-07T05:53:55.354Z,68.73
2023-02-07T05:54:55.333Z,66.08
2023-02-07T05:55:55.330Z,67.74
2023-02-07T05:56:55.327Z,69.39
2023-02-07T05:57:55.356Z,66.89
2023-02-07T05:58:55.297Z,68.82
2023-02-07T05:59:55.338Z,65.60
2023-02-07T06:00:55.292Z,68.12
2023-02-07T06:01:55.295Z,65.89
2023-02-07T06:02:55.285Z,68.77
2023-02-07T06:03:55.293Z,69.90
2023-02-07T06:04:55.272Z,68.65
2023-02-07T06:05:55.290Z,67.79
2023-02-07T06:06:55.278Z,66.05
2023-02-07T06:07:55.284Z,68.98
2023-02-07T06:08:55.268Z,69.08
2023-02-07T06:09:55.267Z,69.55
2023-02-07T06:10:55.226Z,67.54
2023-02-07T06:11:55.259Z,68.70
2023-02-07T06:12:55.257Z,68.07
2023-02-07T06:13:55.225Z,67.77
2023-02-07T06:14:55.202Z,69.39
2023-02-07T06:15:55.351Z,69.93
2023-02-07T06:16:55.192Z,67.36
2023-02-07T06:17:55.236Z,69.71
2023-02-07T06:18:55.181Z,69.34
2023-02-07T06:19:55.195Z,67.56
2023-02-07T06:20:55.169Z,69.76
2023-02-07T06:21:55.173Z,70.13
2023-02-07T06:22:55.179Z,68.38
2023-02-07T06:23:55.145Z,66.69
2023-02-07T06:24:55.177Z,69.81
2023-02-07T06:25:55.140Z,69.07
2023-02-07T06:26:55.130Z,66.14
2023-02-07T06:27:55.167Z,67.60
2023-02-07T06:28:55.123Z,68.66
2023-02-07T06:29:55.119Z,70.25
2023-02-07T06:30:55.138Z,66.99
2023-02-07T06:31:55.104Z,67.45
2023-02-07T06:32:55.090Z,69.53
2023-02-07T06:33:55.109Z,69.75
2023-02-07T06:34:55.081Z,70.28
2023-02-07T06:35:55.074Z,69.53
2023-02-07T06:36:55.066Z,68.25
2023-02-07T06:37:55.328Z,68.90
2023-02-07T06:38:55.053Z,69.08
2023-02-07T06:39:55.064Z,68.48
2023-02-07T06:40:55.034Z,68.72
2023-02-07T06:41:55.031Z,68.26
2023-02-07T06:42:55.026Z,68.16
2023-02-07T06:43:55.043Z,67.34
2023-02-07T06:44:55.014Z,67.98
2023-02-07T06:45:55.009Z,67.33
2023-02-07T06:46:55.013Z,69.31
2023-02-07T06:47:54.994Z,68.05
2023-02-07T06:48:54.981Z,65.83
2023-02-07T06:49:55.004Z,68.85
2023-02-07T06:50:54.978Z,69.82
2023-02-07T06:51:55.005Z,69.95
2023-02-07T06:52:54.968Z,66.78
2023-02-07T06:53:54.965Z,68.32
2023-02-07T06:54:54.950Z,68.62
2023-02-07T06:55:54.963Z,68.56
2023-02-07T06:56:54.936Z,68.21
2023-02-07T06:57:54.930Z,67.06
2023-02-07T06:58:54.933Z,66.55
2023-02-07T06:59:54.927Z,68.53
2023-02-07T07:00:54.935Z,68.23
2023-02-07T07:01:54.953Z,68.60
2023-02-07T07:02:54.934Z,69.37
2023-02-07T07:03:54.903Z,66.74
2023-02-07T07:04:54.898Z,68.36
2023-02-07T07:05:54.885Z,69.87
2023-02-07T07:06:54.887Z,68.97
2023-02-07T07:07:54.884Z,66.62
2023-02-07T07:08:54.861Z,67.96
2023-02-07T07:09:54.863Z,69.03
2023-02-07T07:10:54.851Z,69.78
2023-02-07T07:11:54.845Z,69.71
2023-02-07T07:12:54.872Z,67.60
2023-02-07T07:13:54.840Z,66.75
2023-02-07T07:14:54.827Z,66.85
2023-02-07T07:15:54.857Z,68.68
2023-02-07T07:16:56.739Z,68.94
2023-02-07T07:17:54.811Z,69.97
2023-02-07T07:18:54.817Z,66.21
2023-02-07T07:19:54.800Z,69.74
2023-02-07T07:20:54.790Z,71.74
2023-02-07T07:21:54.803Z,69.45
2023-02-07T07:22:54.780Z,68.18
2023-02-07T07:23:54.761Z,70.43
2023-02-07T07:24:54.765Z,69.50
2023-02-07T07:25:54.749Z,68.03
2023-02-07T07:26:54.763Z,66.80
2023-02-07T07:27:54.764Z,70.08
2023-02-07T07:28:54.753Z,68.02
2023-02-07T07:29:54.723Z,69.45
2023-02-07T07:30:54.736Z,68.69
2023-02-07T07:31:54.756Z,67.87
2023-02-07T07:32:54.715Z,65.11
2023-02-07T07:33:54.706Z,66.53
2023-02-07T07:34:54.695Z,66.27
2023-02-07T07:35:54.692Z,66.90
2023-02-07T07:36:54.705Z,68.24
2023-02-07T07:37:54.677Z,66.14
2023-02-07T07:38:54.669Z,64.21
2023-02-07T07:39:54.663Z,65.17
2023-02-07T07:40:54.668Z,68.18
2023-02-07T07:41:54.646Z,66.18
2023-02-07T07:42:54.645Z,68.15
2023-02-07T07:43:54.640Z,65.69
2023-02-07T07:44:54.652Z,65.94
2023-02-07T07:45:54.631Z,66.66
2023-02-07T07:46:54.620Z,65.72
2023-02-07T07:47:54.624Z,66.01
2023-02-07T07:48:54.592Z,68.14
2023-02-07T07:49:54.589Z,66.38
2023-02-07T07:50:54.602Z,65.93
2023-02-07T07:51:54.595Z,67.45
2023-02-07T07:52:54.564Z,66.08
2023-02-07T07:53:54.559Z,65.49
2023-02-07T07:54:54.556Z,63.45
2023-02-07T07:55:54.556Z,62.67
2023-02-07T07:56:54.544Z,66.34
2023-02-07T07:57:54.565Z,65.65
2023-02-07T07:58:54.531Z,63.90
2023-02-07T07:59:54.520Z,62.26
2023-02-07T08:00:54.536Z,64.93
2023-02-07T08:01:54.520Z,65.37
2023-02-07T08:02:54.502Z,64.99
2023-02-07T08:03:54.551Z,64.08
2023-02-07T08:04:54.500Z,64.10
2023-02-07T08:05:54.497Z,63.71
2023-02-07T08:06:54.477Z,62.76
2023-02-07T08:07:54.477Z,62.15
2023-02-07T08:08:54.478Z,63.63
2023-02-07T08:09:54.488Z,65.40
2023-02-07T08:10:54.470Z,63.91
2023-02-07T08:11:54.467Z,65.05
2023-02-07T08:12:54.443Z,63.72
2023-02-07T08:13:54.440Z,65.25
2023-02-07T08:14:54.465Z,64.10
2023-02-07T08:15:54.520Z,61.79
2023-02-07T08:16:54.426Z,62.14
2023-02-07T08:17:54.443Z,64.68
2023-02-07T08:18:54.417Z,63.68
2023-02-07T08:19:54.416Z,62.86
2023-02-07T08:20:54.568Z,61.16
2023-02-07T08:21:54.404Z,61.74
2023-02-07T08:22:54.411Z,65.25
2023-02-07T08:23:54.393Z,64.98
2023-02-07T08:24:54.380Z,63.09
2023-02-07T08:25:54.376Z,64.35
2023-02-07T08:26:54.398Z,64.81
2023-02-07T08:27:54.389Z,63.12
2023-02-07T08:28:54.361Z,63.45
2023-02-07T08:29:54.358Z,62.24
2023-02-07T08:30:54.375Z,62.04
2023-02-07T08:31:54.432Z,61.71
2023-02-07T08:32:54.352Z,62.29
2023-02-07T08:33:54.344Z,64.84
2023-02-07T08:34:54.341Z,63.47
2023-02-07T08:35:54.331Z,62.66
2023-02-07T08:36:54.308Z,61.39
2023-02-07T08:37:54.341Z,59.77
2023-02-07T08:38:54.304Z,64.47
2023-02-07T08:39:54.301Z,63.08
2023-02-07T08:40:54.315Z,62.98
2023-02-07T08:41:54.304Z,63.61
2023-02-07T08:42:54.287Z,59.06
2023-02-07T08:43:54.278Z,62.49
2023-02-07T08:44:54.267Z,61.67
2023-02-07T08:45:54.471Z,61.61
2023-02-07T08:46:54.272Z,60.32
2023-02-07T08:47:54.263Z,61.39
2023-02-07T08:48:54.247Z,63.57
2023-02-07T08:49:54.258Z,63.17
2023-02-07T08:50:55.011Z,62.99
2023-02-07T08:51:54.247Z,62.77
2023-02-07T08:52:54.226Z,61.43
2023-02-07T08:53:54.234Z,62.30
2023-02-07T08:54:54.213Z,58.59
2023-02-07T08:55:54.200Z,60.52
2023-02-07T08:56:54.225Z,62.37
2023-02-07T08:57:54.215Z,63.30
2023-02-07T08:58:54.227Z,62.84
2023-02-07T08:59:54.304Z,63.15
2023-02-07T09:00:54.255Z,60.46
2023-02-07T09:01:54.205Z,59.61
2023-02-07T09:02:54.163Z,60.72
2023-02-07T09:03:54.157Z,62.02
2023-02-07T09:04:54.148Z,62.32
2023-02-07T09:05:54.149Z,59.52
2023-02-07T09:06:54.170Z,59.36
2023-02-07T09:07:54.133Z,59.12
2023-02-07T09:08:54.151Z,62.92
2023-02-07T09:09:54.121Z,59.35
2023-02-07T09:10:54.156Z,62.49
2023-02-07T09:11:54.142Z,62.30
2023-02-07T09:12:54.120Z,60.20
2023-02-07T09:13:54.117Z,60.67
2023-02-07T09:14:54.113Z,61.50
2023-02-07T09:15:54.090Z,61.30
2023-02-07T09:16:54.169Z,59.68
2023-02-07T09:17:54.061Z,61.99
2023-02-07T09:18:54.055Z,59.86
2023-02-07T09:19:54.082Z,62.78
2023-02-07T09:20:54.052Z,63.30
2023-02-07T09:21:54.042Z,63.56
2023-02-07T09:22:54.034Z,60.30
2023-02-07T09:23:54.028Z,59.54
2023-02-07T09:24:54.006Z,61.51
2023-02-07T09:25:54.044Z,63.08
2023-02-07T09:26:54.002Z,62.06
2023-02-07T09:27:54.008Z,61.05
2023-02-07T09:28:53.980Z,61.13
2023-02-07T09:29:53.996Z,59.99
2023-02-07T09:30:54.417Z,62.54
2023-02-07T09:31:54.065Z,62.42
2023-02-07T09:32:53.949Z,63.33
2023-02-07T09:33:53.947Z,61.10
2023-02-07T09:34:53.959Z,59.38
2023-02-07T09:35:53.974Z,62.74
2023-02-07T09:36:53.943Z,62.27
2023-02-07T09:37:53.935Z,59.72
2023-02-07T09:38:53.910Z,60.18
2023-02-07T09:39:53.905Z,62.65
2023-02-07T09:40:53.886Z,60.92
2023-02-07T09:41:53.885Z,59.95
2023-02-07T09:42:53.948Z,60.69
2023-02-07T09:43:53.954Z,61.30
2023-02-07T09:44:54.113Z,61.92
2023-02-07T09:45:53.889Z,57.35
2023-02-07T09:46:53.873Z,60.41
2023-02-07T09:47:53.858Z,59.82
2023-02-07T09:48:53.854Z,59.74
2023-02-07T09:49:53.830Z,60.09
2023-02-07T09:50:53.829Z,59.80
2023-02-07T09:51:53.812Z,60.79
2023-02-07T09:52:53.810Z,59.85
2023-02-07T09:53:53.842Z,62.50
2023-02-07T09:54:53.814Z,61.29
2023-02-07T09:55:53.798Z,59.25
2023-02-07T09:56:53.787Z,60.42
2023-02-07T09:57:53.802Z,60.50
2023-02-07T09:58:53.774Z,59.91
2023-02-07T09:59:53.769Z,62.40
2023-02-07T10:00:53.797Z,60.74
2023-02-07T10:01:53.761Z,60.17
2023-02-07T10:02:53.740Z,60.41
2023-02-07T10:03:53.766Z,60.73
2023-02-07T10:04:53.720Z,60.64
2023-02-07T10:05:53.714Z,62.32
2023-02-07T10:06:53.714Z,61.12
2023-02-07T10:07:53.714Z,62.53
2023-02-07T10:08:53.701Z,59.47
2023-02-07T10:09:53.728Z,59.89
2023-02-07T10:10:53.702Z,61.21
2023-02-07T10:11:53.702Z,61.17
2023-02-07T10:12:53.681Z,60.45
2023-02-07T10:13:53.676Z,58.76
2023-02-07T10:14:53.661Z,60.56
2023-02-07T10:15:53.703Z,62.65
2023-02-07T10:16:53.642Z,59.99
2023-02-07T10:17:53.639Z,62.79
2023-02-07T10:18:53.756Z,60.80
2023-02-07T10:19:53.649Z,63.47
2023-02-07T10:20:53.618Z,59.45
2023-02-07T10:21:53.631Z,60.85
2023-02-07T10:22:53.637Z,60.43
2023-02-07T10:23:53.615Z,61.42
2023-02-07T10:24:53.612Z,60.78
2023-02-07T10:25:53.590Z,58.73
2023-02-07T10:26:53.601Z,59.70
2023-02-07T10:27:53.593Z,61.48
2023-02-07T10:28:53.577Z,60.80
2023-02-07T10:29:53.591Z,60.71
2023-02-07T10:30:53.690Z,59.50
2023-02-07T10:31:53.633Z,60.05
2023-02-07T10:32:53.544Z,60.19
2023-02-07T10:33:53.538Z,61.38
2023-02-07T10:34:53.562Z,58.54
2023-02-07T10:35:53.546Z,57.94
2023-02-07T10:36:53.526Z,61.05
2023-02-07T10:37:53.553Z,58.50
2023-02-07T10:39:03.325Z,59.19
2023-02-07T10:39:54.513Z,59.81
2023-02-07T10:40:53.533Z,62.58
2023-02-07T10:41:53.504Z,62.37
2023-02-07T10:42:53.565Z,59.40
2023-02-07T10:43:53.504Z,59.12
2023-02-07T10:44:53.481Z,59.68
2023-02-07T10:46:00.417Z,60.73
2023-02-07T10:46:54.528Z,59.93
2023-02-07T10:47:53.448Z,58.74
2023-02-07T10:48:53.511Z,58.73
2023-02-07T10:49:53.449Z,61.69
2023-02-07T10:50:53.423Z,59.47
2023-02-07T10:51:53.446Z,61.17
2023-02-07T10:52:53.417Z,59.64
2023-02-07T10:53:55.368Z,59.21
2023-02-07T10:54:53.440Z,60.50
2023-02-07T10:55:53.403Z,58.67
2023-02-07T10:56:54.674Z,60.53
2023-02-07T10:57:59.050Z,60.54
2023-02-07T10:58:54.381Z,62.48
2023-02-07T10:59:53.397Z,61.39
2023-02-07T11:00:53.372Z,59.81
2023-02-07T11:01:53.408Z,60.36
2023-02-07T11:02:53.393Z,60.18
2023-02-07T11:03:53.386Z,60.74
2023-02-07T11:04:53.371Z,59.34
2023-02-07T11:05:53.368Z,61.51
2023-02-07T11:06:53.329Z,61.01
2023-02-07T11:07:53.370Z,58.52
2023-02-07T11:08:53.317Z,60.16
2023-02-07T11:09:53.332Z,61.63
2023-02-07T11:10:53.335Z,60.27
2023-02-07T11:11:53.321Z,61.70
2023-02-07T11:12:53.294Z,60.86
2023-02-07T11:13:53.324Z,60.60
2023-02-07T11:14:53.332Z,60.38
2023-02-07T11:15:53.328Z,60.19
2023-02-07T11:16:53.277Z,62.43
2023-02-07T11:17:53.276Z,61.63
2023-02-07T11:18:53.279Z,60.74
2023-02-07T11:19:53.240Z,60.13
2023-02-07T11:20:53.249Z,61.40
2023-02-07T11:21:53.237Z,60.22
2023-02-07T11:22:53.230Z,60.85
2023-02-07T11:23:53.752Z,60.48
2023-02-07T11:24:53.220Z,61.35
2023-02-07T11:25:53.199Z,61.01
2023-02-07T11:26:53.190Z,60.39
2023-02-07T11:27:53.195Z,62.14
2023-02-07T11:28:53.203Z,59.96
2023-02-07T11:29:53.174Z,61.70
2023-02-07T11:30:53.254Z,61.91
2023-02-07T11:31:53.202Z,62.64
2023-02-07T11:32:53.146Z,63.26
2023-02-07T11:33:53.148Z,61.06
2023-02-07T11:34:53.160Z,60.12
2023-02-07T11:35:53.136Z,63.02
2023-02-07T11:36:53.129Z,61.54
2023-02-07T11:37:53.115Z,62.30
2023-02-07T11:38:53.119Z,61.08
2023-02-07T11:39:53.123Z,63.50
2023-02-07T11:40:53.122Z,62.26
2023-02-07T11:41:53.107Z,61.01
2023-02-07T11:42:53.087Z,61.34
2023-02-07T11:43:53.081Z,60.73
2023-02-07T11:44:53.075Z,62.41
2023-02-07T11:45:53.074Z,62.55
2023-02-07T11:46:53.082Z,62.51
2023-02-07T11:47:53.050Z,62.80
2023-02-07T11:48:53.065Z,62.72
2023-02-07T11:49:53.046Z,61.78
2023-02-07T11:50:53.039Z,62.60
2023-02-07T11:51:53.030Z,63.48
2023-02-07T11:52:55.747Z,63.99
2023-02-07T11:53:53.011Z,62.63
2023-02-07T11:54:53.022Z,63.07
2023-02-07T11:55:53.034Z,60.05
2023-02-07T11:56:52.994Z,61.84
2023-02-07T11:57:53.000Z,62.89
2023-02-07T11:58:52.975Z,62.93
2023-02-07T11:59:52.978Z,60.87
2023-02-07T12:00:52.972Z,61.89
2023-02-07T12:01:52.999Z,62.60
2023-02-07T12:02:52.959Z,63.28
2023-02-07T12:03:52.980Z,63.45
2023-02-07T12:04:52.987Z,62.67
2023-02-07T12:05:52.944Z,62.62
2023-02-07T12:06:52.933Z,63.99
2023-02-07T12:07:52.963Z,63.66
2023-02-07T12:08:52.921Z,62.66
2023-02-07T12:09:52.935Z,63.08
2023-02-07T12:10:52.914Z,62.20
2023-02-07T12:11:52.919Z,61.16
2023-02-07T12:12:52.895Z,61.85
2023-02-07T12:13:52.895Z,61.64
2023-02-07T12:14:52.892Z,62.04
2023-02-07T12:15:52.921Z,63.09
2023-02-07T12:16:52.892Z,61.14
2023-02-07T12:17:52.864Z,63.25
2023-02-07T12:18:52.856Z,63.67
2023-02-07T12:19:52.911Z,61.50
2023-02-07T12:20:52.847Z,60.79
2023-02-07T12:21:52.872Z,62.44
2023-02-07T12:23:00.203Z,62.01
2023-02-07T12:23:52.831Z,63.15
2023-02-07T12:24:52.821Z,63.44
2023-02-07T12:25:52.815Z,62.45
2023-02-07T12:26:52.832Z,62.98
2023-02-07T12:27:52.835Z,65.10
2023-02-07T12:29:01.315Z,63.38
2023-02-07T12:29:53.802Z,63.46
2023-02-07T12:30:52.805Z,62.72
2023-02-07T12:31:52.896Z,63.52
2023-02-07T12:32:52.842Z,65.44
2023-02-07T12:33:52.791Z,63.98
2023-02-07T12:34:52.767Z,60.39
2023-02-07T12:35:57.516Z,64.26
2023-02-07T12:36:53.757Z,65.15
2023-02-07T12:37:52.756Z,62.76
2023-02-07T12:38:52.765Z,60.64
2023-02-07T12:39:52.767Z,64.23
2023-02-07T12:40:52.764Z,64.15
2023-02-07T12:41:52.735Z,63.87
2023-02-07T12:42:52.724Z,65.92
2023-02-07T12:43:52.707Z,64.34
2023-02-07T12:44:52.710Z,62.24
2023-02-07T12:45:52.769Z,61.82
2023-02-07T12:46:52.719Z,64.04
2023-02-07T12:47:52.722Z,64.30
2023-02-07T12:48:52.729Z,62.53
2023-02-07T12:49:52.684Z,63.63
2023-02-07T12:50:52.672Z,63.04
2023-02-07T12:51:52.684Z,63.30
2023-02-07T12:52:52.672Z,62.64